Time;durP1;ratioP1;P1;durP2;ratioP2;P2;SDS_P1;SDS_P2;PMS_P1;PMS_P2;Temp;Humidity;BMP_temperature;BMP_pressure;BME280_temperature;BME280_humidity;BME280_pressure;Samples;Min_cycle;Max_cycle;Signal;HPM_P1;HPM_P2
2023/04/04 00:01:30;;;;;;;1.33;0.90;;;2.70;99.90;2.50;101786.00;;;;4933782;28;123030;-64
2023/04/04 00:03:56;;;;;;;2.30;1.00;;;2.70;99.90;2.40;101788.00;;;;4935152;28;94322;-63
2023/04/04 00:06:22;;;;;;;2.13;0.93;;;2.70;99.90;2.40;101773.00;;;;4933148;28;92118;-64
2023/04/04 00:08:47;;;;;;;1.50;1.03;;;2.70;99.90;2.40;101787.00;;;;4936916;28;123930;-64
2023/04/04 00:11:13;;;;;;;1.40;1.03;;;2.80;99.90;2.40;101780.00;;;;4937815;28;122141;-64
2023/04/04 00:13:39;;;;;;;2.87;1.03;;;2.70;99.90;2.30;101784.00;;;;4949105;28;101685;-63
2023/04/04 00:16:06;;;;;;;0.60;0.60;;;2.60;99.90;2.30;101781.00;;;;4946886;28;109165;-64
2023/04/04 00:18:31;;;;;;;1.07;0.80;;;2.60;99.90;2.30;101781.00;;;;4937933;28;111326;-64
2023/04/04 00:20:58;;;;;;;3.53;1.00;;;2.50;99.90;2.30;101775.00;;;;4936894;28;123912;-65
2023/04/04 00:23:24;;;;;;;1.03;0.80;;;3.40;99.90;2.30;101779.00;;;;4937371;28;109964;-64
2023/04/04 00:25:51;;;;;;;2.00;1.37;;;2.50;99.90;2.20;101774.00;;;;4936676;28;105442;-65
2023/04/04 00:28:20;;;;;;;1.37;1.20;;;2.50;99.90;2.20;101778.00;;;;4932109;28;94167;-65
2023/04/04 00:30:47;;;;;;;3.40;1.27;;;2.50;99.90;2.20;101780.00;;;;4934979;28;93647;-64
2023/04/04 00:33:13;;;;;;;2.47;1.37;;;2.40;99.90;2.20;101776.00;;;;4948752;28;104821;-63
2023/04/04 00:35:40;;;;;;;1.50;1.00;;;2.40;99.90;2.20;101778.00;;;;4938471;28;93159;-64
2023/04/04 00:38:06;;;;;;;0.70;0.70;;;2.40;99.90;2.10;101775.00;;;;4934199;28;94682;-65
2023/04/04 00:40:52;;;;;;;1.93;1.03;;;2.40;99.90;2.10;101774.00;;;;4935420;28;94342;-64
2023/04/04 00:43:18;;;;;;;1.27;1.17;;;1.80;99.90;2.10;101771.00;;;;4933220;28;110122;-63
2023/04/04 00:45:44;;;;;;;1.27;1.10;;;2.40;99.90;2.10;101764.00;;;;4950247;28;93027;-63
2023/04/04 00:48:10;;;;;;;1.00;0.90;;;2.40;99.90;2.10;101761.00;;;;4938702;28;114465;-65
2023/04/04 00:50:36;;;;;;;2.33;1.30;;;2.40;99.90;2.10;101774.00;;;;4957784;28;103823;-64
2023/04/04 00:53:02;;;;;;;1.17;1.17;;;3.00;99.90;2.10;101767.00;;;;4939691;28;92766;-64
2023/04/04 00:55:28;;;;;;;3.00;1.10;;;2.30;99.90;2.00;101759.00;;;;4939239;28;108461;-65
2023/04/04 00:57:53;;;;;;;1.83;0.87;;;2.30;99.90;2.00;101760.00;;;;4918962;28;114517;-63
2023/04/04 01:00:20;;;;;;;1.10;0.90;;;2.30;99.90;2.00;101771.00;;;;4919634;28;123956;-65
2023/04/04 01:02:46;;;;;;;0.80;0.80;;;2.40;99.90;2.00;101756.00;;;;4935577;28;110398;-64
2023/04/04 01:05:12;;;;;;;1.10;0.97;;;2.30;99.90;2.00;101758.00;;;;4935675;28;92849;-64
2023/04/04 01:07:47;;;;;;;0.87;0.87;;;2.30;99.90;2.00;101766.00;;;;4950150;28;121700;-64
2023/04/04 01:10:12;;;;;;;1.30;1.20;;;2.20;99.90;2.00;101774.00;;;;4947360;28;104461;-65
2023/04/04 01:12:39;;;;;;;1.97;1.10;;;2.20;99.90;2.00;101757.00;;;;4935345;28;98139;-64
2023/04/04 01:15:05;;;;;;;1.07;0.90;;;2.30;99.90;2.00;101759.00;;;;4935720;28;92708;-64
2023/04/04 01:17:31;;;;;;;1.80;1.60;;;2.30;99.90;2.00;101750.00;;;;4937832;28;113483;-63
2023/04/04 01:20:23;;;;;;;1.60;1.13;;;2.30;99.90;2.00;101765.00;;;;4935647;28;120337;-65
2023/04/04 01:22:50;;;;;;;2.60;1.60;;;2.30;99.90;2.00;101749.00;;;;4937565;28;93010;-64
2023/04/04 01:25:18;;;;;;;1.33;0.70;;;2.20;99.90;2.00;101750.00;;;;4921404;28;94540;-65
2023/04/04 01:27:45;;;;;;;5.43;1.07;;;2.30;99.90;2.00;101744.00;;;;4948524;28;94016;-64
2023/04/04 01:30:12;;;;;;;4.90;1.33;;;2.20;99.90;2.00;101741.00;;;;4940684;28;94136;-65
2023/04/04 01:32:48;;;;;;;1.17;0.70;;;2.20;99.90;2.00;101742.00;;;;4936519;28;110728;-64
2023/04/04 01:35:43;;;;;;;5.03;0.80;;;2.20;99.90;1.90;101743.00;;;;4950230;28;93090;-65
2023/04/04 01:38:27;;;;;;;1.57;0.60;;;2.20;99.90;1.90;101737.00;;;;4899119;28;102762;-64
2023/04/04 01:41:01;;;;;;;2.50;1.17;;;2.30;99.90;1.90;101737.00;;;;4918983;28;93114;-63
2023/04/04 01:43:29;;;;;;;1.00;0.90;;;2.20;99.90;1.90;101740.00;;;;4936245;28;92982;-64
2023/04/04 01:45:55;;;;;;;2.23;1.40;;;2.30;99.90;1.90;101732.00;;;;4934467;28;109111;-63
2023/04/04 01:48:21;;;;;;;1.30;0.80;;;2.20;99.90;1.80;101739.00;;;;4931695;28;94163;-64
2023/04/04 01:50:46;;;;;;;2.13;1.00;;;2.10;99.90;1.80;101732.00;;;;4936433;28;93407;-65
2023/04/04 01:53:12;;;;;;;1.63;0.87;;;2.10;99.90;1.80;101737.00;;;;4936151;28;110410;-63
2023/04/04 01:55:38;;;;;;;1.67;1.20;;;2.00;99.90;1.80;101732.00;;;;4931025;28;106304;-64
2023/04/04 01:58:03;;;;;;;0.60;0.60;;;2.00;99.90;1.80;101741.00;;;;4935492;28;122400;-63
2023/04/04 02:00:29;;;;;;;1.10;0.90;;;2.20;99.90;1.80;101732.00;;;;4936819;28;122587;-63
2023/04/04 02:02:55;;;;;;;7.33;1.47;;;2.10;99.90;1.80;101726.00;;;;4935816;28;92975;-63
2023/04/04 02:05:21;;;;;;;2.07;1.23;;;2.00;99.90;1.70;101725.00;;;;4936582;28;106286;-64
2023/04/04 02:07:48;;;;;;;1.87;1.40;;;2.00;99.90;1.70;101718.00;;;;4941342;28;93863;-66
2023/04/04 02:10:20;;;;;;;2.77;1.10;;;2.00;99.90;1.70;101714.00;;;;4937499;28;93947;-64
2023/04/04 02:12:46;;;;;;;1.47;1.30;;;2.00;99.90;1.70;101709.00;;;;4938939;28;109506;-66
2023/04/04 02:15:11;;;;;;;1.03;0.70;;;2.70;99.90;1.70;101710.00;;;;4938800;28;92809;-65
2023/04/04 02:17:38;;;;;;;4.63;1.57;;;2.00;99.90;1.60;101710.00;;;;4931299;28;115532;-64
2023/04/04 02:20:06;;;;;;;2.47;0.80;;;1.90;99.90;1.60;101718.00;;;;4935759;28;93828;-65
2023/04/04 02:22:31;;;;;;;1.97;1.10;;;1.90;99.90;1.60;101711.00;;;;4934879;28;96652;-64
2023/04/04 02:24:59;;;;;;;3.07;1.33;;;1.90;99.90;1.60;101707.00;;;;4946340;28;109281;-64
2023/04/04 02:27:24;;;;;;;1.53;0.90;;;1.90;99.90;1.60;101707.00;;;;4933367;28;93356;-64
2023/04/04 02:29:50;;;;;;;0.73;0.73;;;1.80;99.90;1.50;101702.00;;;;4934762;28;122447;-64
2023/04/04 02:32:17;;;;;;;3.90;1.90;;;1.80;99.90;1.50;101715.00;;;;4934613;28;110906;-63
2023/04/04 02:34:43;;;;;;;2.63;1.13;;;1.80;99.90;1.50;101717.00;;;;4937156;28;92273;-64
2023/04/04 02:37:09;;;;;;;1.83;0.97;;;1.80;99.90;1.40;101709.00;;;;4935866;28;93790;-63
2023/04/04 02:39:34;;;;;;;2.53;1.40;;;1.70;99.90;1.40;101710.00;;;;4932854;28;99629;-65
2023/04/04 02:42:00;;;;;;;2.80;1.23;;;1.70;99.90;1.30;101698.00;;;;4935098;28;94213;-65
2023/04/04 02:44:26;;;;;;;1.30;0.93;;;1.70;99.90;1.30;101696.00;;;;4948971;28;108392;-64
2023/04/04 02:46:51;;;;;;;4.10;1.23;;;1.50;99.90;1.20;101708.00;;;;4932139;28;122974;-64
2023/04/04 02:49:17;;;;;;;1.33;0.90;;;1.40;99.90;1.20;101696.00;;;;4929479;28;115360;-63
2023/04/04 02:51:56;;;;;;;3.87;1.00;;;1.50;99.90;1.10;101703.00;;;;5028972;27;81102;-65
2023/04/04 02:54:22;;;;;;;1.60;1.20;;;1.50;99.90;1.10;101701.00;;;;5018537;27;81456;-64
2023/04/04 02:56:47;;;;;;;1.67;1.00;;;1.50;99.90;1.20;101707.00;;;;5011528;27;110175;-63
2023/04/04 02:59:13;;;;;;;1.20;1.10;;;1.50;99.90;1.10;101701.00;;;;5016155;27;108286;-64
2023/04/04 03:01:38;;;;;;;2.83;1.13;;;1.40;99.90;1.10;101695.00;;;;5017414;27;110372;-63
2023/04/04 03:04:04;;;;;;;2.23;1.10;;;1.50;99.90;1.10;101699.00;;;;5020775;27;110057;-63
2023/04/04 03:06:33;;;;;;;3.13;1.63;;;1.40;99.90;1.10;101689.00;;;;5015575;27;80983;-63
2023/04/04 03:08:59;;;;;;;3.03;1.30;;;1.30;99.90;1.00;101690.00;;;;5014019;27;104963;-65
2023/04/04 03:11:25;;;;;;;1.90;1.13;;;1.30;99.90;1.00;101692.00;;;;5015140;27;81305;-65
2023/04/04 03:13:51;;;;;;;2.33;1.07;;;1.30;99.90;0.90;101689.00;;;;5009374;27;83462;-64
2023/04/04 03:16:18;;;;;;;1.27;1.10;;;1.20;99.90;0.90;101694.00;;;;5016056;27;81041;-64
2023/04/04 03:18:44;;;;;;;1.17;0.90;;;1.20;99.90;0.80;101681.00;;;;5016084;27;80994;-65
2023/04/04 03:21:09;;;;;;;2.47;1.20;;;1.10;99.90;0.80;101691.00;;;;5006386;27;110133;-64
2023/04/04 03:23:35;;;;;;;1.83;0.93;;;1.00;99.90;0.80;101692.00;;;;5010259;27;81004;-65
2023/04/04 03:26:01;;;;;;;2.33;1.47;;;1.20;99.90;0.80;101699.00;;;;5015169;27;109947;-63
2023/04/04 03:28:28;;;;;;;1.07;0.80;;;1.10;99.90;0.70;101690.00;;;;5016909;27;80992;-64
2023/04/04 03:30:53;;;;;;;7.40;1.43;;;1.00;99.90;0.70;101685.00;;;;5013895;27;81228;-63
2023/04/04 03:33:20;;;;;;;0.97;0.83;;;1.00;99.90;0.60;101684.00;;;;5016301;27;82058;-64
2023/04/04 03:35:46;;;;;;;1.07;0.90;;;1.00;99.90;0.60;101692.00;;;;5012008;27;81824;-64
2023/04/04 03:38:12;;;;;;;1.30;0.97;;;1.00;99.90;0.50;101681.00;;;;5015401;27;81257;-65
2023/04/04 03:40:38;;;;;;;1.13;1.03;;;0.90;99.90;0.50;101690.00;;;;5006614;27;81232;-64
2023/04/04 03:43:13;;;;;;;1.00;0.90;;;0.80;99.90;0.40;101686.00;;;;5013272;27;110954;-65
2023/04/04 03:45:38;;;;;;;6.23;1.80;;;0.80;99.90;0.30;101684.00;;;;5012497;27;110104;-63
2023/04/04 03:48:04;;;;;;;0.80;0.80;;;0.60;99.90;0.20;101688.00;;;;5012391;27;107455;-64
2023/04/04 03:50:30;;;;;;;1.87;1.13;;;0.60;99.90;0.10;101694.00;;;;5014173;27;110725;-65
2023/04/04 03:52:57;;;;;;;2.03;1.37;;;0.40;99.90;0.10;101681.00;;;;5013620;27;81859;-64
2023/04/04 03:55:23;;;;;;;2.10;0.90;;;0.50;99.90;0.00;101686.00;;;;5014108;27;81118;-64
2023/04/04 03:57:48;;;;;;;0.93;0.70;;;0.50;99.90;-0.10;101688.00;;;;4995456;27;109188;-63
2023/04/04 04:00:15;;;;;;;1.40;0.87;;;0.30;99.90;-0.20;101688.00;;;;5020039;27;110818;-65
2023/04/04 04:02:41;;;;;;;3.60;1.67;;;0.20;99.90;-0.30;101682.00;;;;5003930;27;81118;-64
2023/04/04 04:05:06;;;;;;;3.27;1.50;;;0.20;99.90;-0.30;101692.00;;;;4999752;28;80970;-63
2023/04/04 04:07:32;;;;;;;1.57;0.87;;;0.10;99.90;-0.40;101685.00;;;;5000546;28;106051;-64
2023/04/04 04:09:58;;;;;;;1.53;1.43;;;0.10;99.90;-0.50;101689.00;;;;4998598;28;81245;-64
2023/04/04 04:12:25;;;;;;;4.93;1.40;;;-0.10;99.90;-0.60;101692.00;;;;5001911;28;104237;-63
2023/04/04 04:14:50;;;;;;;5.07;2.30;;;0.70;99.90;-0.60;101681.00;;;;5000583;28;81746;-64
2023/04/04 04:17:16;;;;;;;2.80;1.40;;;-0.10;99.90;-0.70;101681.00;;;;5013202;28;81075;-67
2023/04/04 04:19:42;;;;;;;1.60;1.00;;;-0.30;99.90;-0.70;101698.00;;;;4996537;28;110654;-64
2023/04/04 04:22:07;;;;;;;3.83;1.03;;;-0.40;99.90;-0.80;101684.00;;;;4999863;28;111149;-63
2023/04/04 04:24:33;;;;;;;3.77;1.63;;;-0.30;99.90;-0.80;101691.00;;;;4999052;28;110682;-65
2023/04/04 04:26:59;;;;;;;2.77;1.43;;;-0.40;99.90;-0.90;101683.00;;;;5001116;28;108191;-64
2023/04/04 04:29:25;;;;;;;4.30;1.83;;;-0.50;99.90;-1.00;101682.00;;;;4999139;28;81987;-63
2023/04/04 04:31:51;;;;;;;2.17;1.40;;;-0.60;99.90;-1.00;101683.00;;;;4993710;28;82352;-64
2023/04/04 04:34:17;;;;;;;5.37;1.30;;;-0.60;99.90;-1.10;101692.00;;;;4999135;28;81604;-64
2023/04/04 04:36:43;;;;;;;1.77;1.23;;;-0.60;99.90;-1.10;101695.00;;;;5013289;27;104198;-65
2023/04/04 04:39:08;;;;;;;2.60;1.30;;;-0.60;99.90;-1.20;101695.00;;;;5002350;28;108970;-65
2023/04/04 04:41:35;;;;;;;3.57;1.50;;;-0.90;99.90;-1.20;101697.00;;;;4996013;28;110639;-65
2023/04/04 04:44:01;;;;;;;3.03;1.70;;;-0.70;99.90;-1.20;101682.00;;;;5000311;28;81100;-64
2023/04/04 04:46:26;;;;;;;2.27;1.43;;;-0.80;99.90;-1.30;101694.00;;;;5002012;28;108670;-64
2023/04/04 04:48:52;;;;;;;8.40;1.57;;;-0.80;99.90;-1.30;101694.00;;;;4998102;28;111903;-64
2023/04/04 04:51:18;;;;;;;1.47;1.27;;;-0.90;99.90;-1.40;101686.00;;;;5002203;28;97415;-64
2023/04/04 04:53:43;;;;;;;1.70;1.57;;;-1.10;99.90;-1.40;101694.00;;;;4998555;27;109773;-65
2023/04/04 04:56:09;;;;;;;2.93;1.27;;;-1.00;99.90;-1.40;101696.00;;;;5013739;28;81149;-64
2023/04/04 04:58:37;;;;;;;1.30;1.20;;;-1.00;99.90;-1.40;101698.00;;;;5001377;28;81940;-64
2023/04/04 05:01:03;;;;;;;1.83;1.50;;;-0.90;99.90;-1.40;101702.00;;;;4998751;28;104571;-65
2023/04/04 05:03:29;;;;;;;8.07;2.07;;;-1.00;99.90;-1.40;101701.00;;;;4997092;28;108722;-65
2023/04/04 05:05:54;;;;;;;2.77;1.47;;;-0.90;99.90;-1.40;101705.00;;;;4999455;28;81072;-65
2023/04/04 05:08:21;;;;;;;1.73;1.10;;;-0.90;99.90;-1.30;101706.00;;;;4997518;28;81747;-64
2023/04/04 05:10:46;;;;;;;3.40;1.67;;;-0.90;99.90;-1.20;101707.00;;;;4997162;28;82139;-64
2023/04/04 05:13:12;;;;;;;5.53;1.20;;;-0.90;99.90;-1.20;101706.00;;;;5000634;27;110001;-63
2023/04/04 05:15:38;;;;;;;3.83;1.63;;;-0.90;99.90;-1.10;101710.00;;;;4997765;27;80975;-65
2023/04/04 05:18:04;;;;;;;1.60;1.13;;;-0.70;99.90;-1.00;101711.00;;;;4995614;28;110583;-63
2023/04/04 05:20:30;;;;;;;4.07;1.60;;;-0.40;99.90;-0.90;101713.00;;;;4996485;28;110778;-65
2023/04/04 05:22:56;;;;;;;2.77;1.40;;;-0.60;99.90;-0.80;101718.00;;;;4994505;28;81960;-64
2023/04/04 05:25:32;;;;;;;1.53;1.37;;;-0.40;99.90;-0.70;101725.00;;;;4991818;28;109114;-64
2023/04/04 05:27:58;;;;;;;2.40;1.53;;;-0.40;99.90;-0.60;101723.00;;;;4992232;28;83117;-64
2023/04/04 05:30:24;;;;;;;8.73;2.03;;;-0.30;99.90;-0.50;101724.00;;;;4996784;28;81051;-63
2023/04/04 05:32:52;;;;;;;3.03;1.97;;;-0.10;99.90;-0.40;101728.00;;;;5006714;28;81364;-63
2023/04/04 05:35:18;;;;;;;2.67;1.00;;;-0.10;99.90;-0.20;101734.00;;;;4989563;27;109290;-65
2023/04/04 05:37:44;;;;;;;2.50;1.50;;;0.10;99.90;-0.10;101733.00;;;;4991643;28;95202;-63
2023/04/04 05:40:10;;;;;;;2.17;1.33;;;0.20;99.90;0.00;101735.00;;;;4995319;27;110762;-64
2023/04/04 05:42:36;;;;;;;4.97;1.30;;;0.30;99.90;0.20;101745.00;;;;4996998;27;111090;-64
2023/04/04 05:45:02;;;;;;;2.00;0.93;;;0.40;99.90;0.40;101732.00;;;;4993665;27;81522;-64
2023/04/04 05:47:28;;;;;;;0.80;0.80;;;0.70;99.90;0.50;101742.00;;;;4994180;28;81942;-64
2023/04/04 05:49:53;;;;;;;2.57;1.17;;;0.70;99.90;0.60;101741.00;;;;4992371;27;110593;-65
2023/04/04 05:52:19;;;;;;;4.27;1.77;;;0.90;99.90;0.70;101742.00;;;;5008553;27;92040;-64
2023/04/04 05:54:45;;;;;;;3.93;1.50;;;1.00;99.90;0.90;101748.00;;;;4994931;28;106568;-64
2023/04/04 05:57:10;;;;;;;1.73;1.43;;;1.10;99.90;1.10;101743.00;;;;4996475;28;81904;-65
2023/04/04 05:59:36;;;;;;;1.23;1.00;;;1.30;99.90;1.20;101746.00;;;;4989693;28;102224;-64
2023/04/04 06:02:02;;;;;;;1.40;1.30;;;1.40;99.90;1.40;101749.00;;;;4994755;28;110452;-65
2023/04/04 06:04:27;;;;;;;1.87;1.20;;;1.60;99.90;1.60;101748.00;;;;4995678;28;108915;-64
2023/04/04 06:06:54;;;;;;;2.07;1.43;;;2.00;99.90;1.80;101743.00;;;;4995659;27;111665;-64
2023/04/04 06:09:19;;;;;;;0.77;0.67;;;2.00;99.90;2.00;101756.00;;;;5000931;27;81169;-64
2023/04/04 06:11:45;;;;;;;3.93;1.73;;;2.20;99.90;2.20;101752.00;;;;5000321;28;81200;-65
2023/04/04 06:14:11;;;;;;;1.40;1.00;;;2.30;99.90;2.40;101748.00;;;;4993560;28;109432;-64
2023/04/04 06:16:36;;;;;;;1.83;1.23;;;2.50;99.90;2.50;101760.00;;;;4995238;28;111109;-65
2023/04/04 06:19:02;;;;;;;1.97;1.47;;;2.70;99.90;2.70;101756.00;;;;4997558;27;98739;-64
2023/04/04 06:21:28;;;;;;;3.27;1.33;;;2.90;99.90;2.90;101753.00;;;;4991524;28;81882;-63
2023/04/04 06:23:53;;;;;;;1.90;1.57;;;3.10;99.90;3.00;101755.00;;;;4997689;28;81243;-64
2023/04/04 06:26:19;;;;;;;2.33;1.53;;;3.20;99.90;3.10;101756.00;;;;4996109;27;109926;-64
2023/04/04 06:28:57;;;;;;;3.23;1.20;;;3.20;99.90;3.20;101750.00;;;;5006882;27;81925;-64
2023/04/04 06:31:23;;;;;;;9.33;1.13;;;3.30;99.90;3.40;101754.00;;;;4991444;28;81229;-65
2023/04/04 06:33:48;;;;;;;0.83;0.83;;;3.50;99.90;3.60;101751.00;;;;4996384;28;107366;-63
2023/04/04 06:36:14;;;;;;;3.40;2.00;;;3.80;99.90;3.70;101754.00;;;;4999692;27;81215;-64
2023/04/04 06:38:40;;;;;;;2.07;1.00;;;3.80;99.90;3.90;101752.00;;;;4996750;27;81134;-63
2023/04/04 06:41:05;;;;;;;2.23;1.37;;;4.10;99.90;4.10;101749.00;;;;4997342;27;111622;-65
2023/04/04 06:43:31;;;;;;;2.30;1.47;;;4.30;99.90;4.20;101758.00;;;;4995638;27;99839;-64
2023/04/04 06:45:57;;;;;;;1.17;0.77;;;4.30;99.90;4.40;101756.00;;;;4989559;28;110406;-65
2023/04/04 06:48:22;;;;;;;1.90;1.30;;;4.60;99.90;4.60;101753.00;;;;5005247;28;113911;-64
2023/04/04 06:50:48;;;;;;;0.60;0.60;;;5.50;99.90;4.80;101754.00;;;;4995156;27;110624;-65
2023/04/04 06:53:14;;;;;;;1.77;1.10;;;4.90;99.30;4.90;101756.00;;;;4991739;28;108397;-63
2023/04/04 06:55:40;;;;;;;5.20;1.50;;;5.00;98.10;5.00;101748.00;;;;4993407;27;112393;-65
2023/04/04 06:58:05;;;;;;;1.40;0.97;;;5.20;97.70;5.20;101747.00;;;;4994199;27;82983;-64
2023/04/04 07:00:31;;;;;;;0.70;0.70;;;5.20;97.60;5.40;101755.00;;;;4995548;27;111244;-65
2023/04/04 07:02:58;;;;;;;2.93;1.90;;;5.50;96.70;5.60;101753.00;;;;4993902;27;83033;-63
2023/04/04 07:05:24;;;;;;;2.73;1.07;;;5.60;96.10;5.60;101753.00;;;;4993869;27;83664;-64
2023/04/04 07:07:56;;;;;;;1.07;0.77;;;6.30;93.30;5.70;101754.00;;;;5000489;27;107451;-63
2023/04/04 07:10:23;;;;;;;4.70;1.20;;;6.40;93.80;5.80;101750.00;;;;4994455;28;82834;-64
2023/04/04 07:12:48;;;;;;;1.63;0.70;;;6.00;90.80;5.80;101750.00;;;;4997543;27;82486;-64
2023/04/04 07:15:14;;;;;;;1.03;0.93;;;6.00;89.90;5.90;101752.00;;;;4993065;27;110747;-64
2023/04/04 07:17:40;;;;;;;1.87;1.07;;;5.90;90.10;6.10;101743.00;;;;4990267;27;113505;-64
2023/04/04 07:20:10;;;;;;;1.43;0.53;;;6.10;90.80;6.30;101756.00;;;;4994811;28;82865;-63
2023/04/04 07:22:39;;;;;;;0.63;0.50;;;6.40;89.00;6.50;101749.00;;;;4995404;28;82325;-64
2023/04/04 07:25:06;;;;;;;0.63;0.60;;;6.50;87.00;6.50;101754.00;;;;5006077;27;95178;-64
2023/04/04 07:27:32;;;;;;;1.07;0.60;;;6.60;84.20;6.70;101759.00;;;;4989698;27;83264;-63
2023/04/04 07:29:58;;;;;;;0.60;0.60;;;7.30;84.10;6.90;101762.00;;;;4993084;27;109875;-64
2023/04/04 07:32:24;;;;;;;1.20;0.83;;;7.30;85.90;7.20;101761.00;;;;4992988;28;109052;-63
2023/04/04 07:34:50;;;;;;;1.60;0.90;;;7.40;86.10;7.50;101755.00;;;;4994175;28;83939;-64
2023/04/04 07:37:15;;;;;;;1.17;0.90;;;7.50;85.40;7.80;101755.00;;;;4994112;28;98065;-62
2023/04/04 07:39:48;;;;;;;3.27;0.50;;;7.80;78.60;7.80;101743.00;;;;4996909;27;82927;-62
2023/04/04 07:42:24;;;;;;;0.87;0.87;;;7.90;75.70;7.80;101751.00;;;;4997431;27;82922;-64
2023/04/04 07:44:50;;;;;;;2.00;0.60;;;7.90;77.50;8.00;101743.00;;;;5007957;27;83489;-64
2023/04/04 07:47:17;;;;;;;0.83;0.73;;;8.10;78.00;8.20;101740.00;;;;4997732;27;98518;-64
2023/04/04 07:49:43;;;;;;;3.80;1.07;;;8.30;77.50;8.40;101744.00;;;;4998534;28;82734;-63
2023/04/04 07:52:08;;;;;;;0.40;0.40;;;8.50;72.20;8.50;101745.00;;;;4993044;27;100156;-64
2023/04/04 07:54:35;;;;;;;1.63;0.77;;;8.50;72.60;8.70;101753.00;;;;4999302;27;96566;-65
2023/04/04 07:57:04;;;;;;;0.93;0.83;;;8.80;74.20;9.00;101749.00;;;;4998620;27;83668;-63
2023/04/04 07:59:31;;;;;;;1.00;0.57;;;9.00;73.10;9.20;101744.00;;;;4997251;27;82768;-63
2023/04/04 08:01:56;;;;;;;1.27;0.60;;;9.30;71.50;9.30;101744.00;;;;5000456;27;102987;-64
2023/04/04 08:04:22;;;;;;;0.77;0.60;;;9.40;68.90;9.50;101762.00;;;;4999407;28;111632;-65
2023/04/04 08:06:48;;;;;;;0.93;0.80;;;9.60;68.50;9.70;101757.00;;;;4999654;27;82790;-64
2023/04/04 08:09:13;;;;;;;0.70;0.60;;;9.70;67.70;9.80;101744.00;;;;4997632;27;82724;-63
2023/04/04 08:11:40;;;;;;;0.57;0.50;;;9.90;65.10;9.90;101746.00;;;;4998913;27;105824;-63
2023/04/04 08:14:05;;;;;;;0.87;0.30;;;10.00;65.40;10.10;101743.00;;;;4992308;27;82838;-63
2023/04/04 08:16:31;;;;;;;0.40;0.30;;;10.20;63.60;10.20;101748.00;;;;4997907;27;112596;-64
2023/04/04 08:18:57;;;;;;;0.30;0.30;;;10.30;60.20;10.20;101747.00;;;;4996761;27;83647;-64
2023/04/04 08:21:23;;;;;;;0.40;0.40;;;10.30;58.90;10.10;101741.00;;;;5007906;27;82690;-62
2023/04/04 08:23:49;;;;;;;0.80;0.60;;;10.30;59.40;10.10;101733.00;;;;4992430;28;112579;-63
2023/04/04 08:26:14;;;;;;;0.50;0.50;;;10.30;58.40;10.10;101736.00;;;;4997515;27;112713;-64
2023/04/04 08:28:40;;;;;;;0.87;0.60;;;10.30;58.90;10.30;101738.00;;;;4996350;27;82631;-63
2023/04/04 08:31:07;;;;;;;0.50;0.50;;;10.50;58.70;10.40;101731.00;;;;4997607;27;107566;-64
2023/04/04 08:33:32;;;;;;;1.07;0.50;;;10.50;58.20;10.40;101735.00;;;;4978941;28;83847;-64
2023/04/04 08:35:58;;;;;;;0.60;0.60;;;10.50;57.40;10.30;101729.00;;;;4993486;27;112937;-63
2023/04/04 08:38:24;;;;;;;0.40;0.13;;;10.50;57.70;10.30;101731.00;;;;4998136;27;109283;-64
2023/04/04 08:40:49;;;;;;;0.83;0.37;;;10.50;55.80;10.10;101731.00;;;;5009228;27;109370;-63
2023/04/04 08:43:18;;;;;;;2.83;0.83;;;10.40;56.30;10.20;101729.00;;;;4994577;27;114650;-64
2023/04/04 08:45:45;;;;;;;1.63;0.50;;;10.30;55.80;10.20;101730.00;;;;4993286;28;84230;-64
2023/04/04 08:48:15;;;;;;;0.73;0.73;;;10.30;54.50;10.20;101727.00;;;;4995626;27;109551;-64
2023/04/04 08:50:43;;;;;;;0.90;0.30;;;10.40;51.60;10.00;101729.00;;;;4995371;28;82886;-64
2023/04/04 08:53:10;;;;;;;0.57;0.47;;;10.30;52.00;10.00;101719.00;;;;4996691;27;83357;-65
2023/04/04 08:55:39;;;;;;;1.17;0.33;;;10.20;52.00;10.10;101725.00;;;;4994330;27;83080;-62
2023/04/04 08:58:11;;;;;;;0.97;0.20;;;10.10;51.60;10.10;101718.00;;;;4972254;27;110321;-66
2023/04/04 09:00:39;;;;;;;0.33;0.33;;;10.20;51.90;10.20;101721.00;;;;5001137;27;109196;-63
2023/04/04 09:03:14;;;;;;;0.93;0.57;;;10.30;51.40;10.20;101723.00;;;;4995356;28;83928;-63
2023/04/04 09:05:40;;;;;;;0.83;0.70;;;10.30;49.90;10.00;101727.00;;;;4998035;27;83843;-64
2023/04/04 09:08:06;;;;;;;0.87;0.40;;;10.20;49.90;10.00;101719.00;;;;4979799;28;83653;-63
2023/04/04 09:10:32;;;;;;;4.37;0.67;;;10.10;49.30;9.90;101716.00;;;;4991303;28;108757;-63
2023/04/04 09:12:59;;;;;;;0.53;0.40;;;10.00;50.70;10.00;101719.00;;;;4994401;27;112075;-63
2023/04/04 09:15:25;;;;;;;1.07;0.70;;;10.00;51.90;10.10;101722.00;;;;4997262;27;83850;-64
2023/04/04 09:17:51;;;;;;;0.50;0.30;;;10.10;51.20;10.00;101724.00;;;;5009782;27;82972;-65
2023/04/04 09:20:42;;;;;;;3.57;1.00;;;10.10;51.10;9.80;101726.00;;;;4991412;27;108113;-64
2023/04/04 09:23:16;;;;;;;0.70;0.50;;;10.00;49.80;9.60;101722.00;;;;4991645;27;96548;-63
2023/04/04 09:25:53;;;;;;;1.33;0.90;;;9.80;48.50;9.30;101718.00;;;;4996202;27;83422;-65
2023/04/04 09:28:20;;;;;;;1.03;0.50;;;9.60;50.00;9.50;101723.00;;;;4992888;27;93055;-65
2023/04/04 09:30:51;;;;;;;0.77;0.40;;;9.50;50.90;9.60;101720.00;;;;4997252;27;83414;-63
2023/04/04 09:33:20;;;;;;;0.63;0.53;;;9.60;49.10;9.70;101722.00;;;;4994913;27;84828;-64
2023/04/04 09:35:53;;;;;;;1.33;0.50;;;9.60;48.50;9.80;101725.00;;;;4998134;27;84251;-65
2023/04/04 09:38:22;;;;;;;2.93;0.30;;;9.70;50.00;10.10;101721.00;;;;4979619;28;83181;-64
2023/04/04 09:40:48;;;;;;;3.60;0.40;;;9.90;50.60;10.30;101721.00;;;;4996664;27;82778;-64
2023/04/04 09:43:14;;;;;;;2.37;0.50;;;10.10;51.50;10.70;101732.00;;;;4992264;27;112589;-65
2023/04/04 09:45:44;;;;;;;0.20;0.20;;;10.40;50.90;10.80;101731.00;;;;4996908;27;83029;-63
2023/04/04 09:48:09;;;;;;;2.17;0.40;;;10.60;50.60;10.90;101731.00;;;;4977646;27;82846;-64
2023/04/04 09:50:44;;;;;;;0.50;0.50;;;10.80;50.30;10.90;101733.00;;;;4992931;27;87932;-64
2023/04/04 09:53:17;;;;;;;0.40;0.40;;;10.80;50.40;10.70;101722.00;;;;4996385;27;82838;-64
2023/04/04 09:55:50;;;;;;;0.27;0.27;;;10.70;50.70;10.70;101729.00;;;;5006653;27;83500;-63
2023/04/04 09:58:20;;;;;;;0.53;0.40;;;10.60;50.70;10.50;101735.00;;;;4995921;27;83794;-63
2023/04/04 10:00:47;;;;;;;0.70;0.70;;;10.50;50.50;10.30;101722.00;;;;4971653;28;82961;-64
2023/04/04 10:03:17;;;;;;;2.20;0.87;;;10.30;50.50;10.30;101734.00;;;;4998246;27;83074;-66
2023/04/04 10:05:47;;;;;;;0.40;0.40;;;10.20;50.40;10.30;101727.00;;;;4995986;27;83516;-64
2023/04/04 10:08:20;;;;;;;3.17;0.97;;;10.20;50.40;10.30;101725.00;;;;4994931;27;82898;-63
2023/04/04 10:10:50;;;;;;;0.83;0.83;;;10.10;50.60;10.40;101727.00;;;;4972543;28;83074;-64
2023/04/04 10:13:28;;;;;;;1.50;0.83;;;10.30;49.50;10.70;101725.00;;;;4998708;27;83895;-65
2023/04/04 10:15:59;;;;;;;0.60;0.60;;;10.40;48.60;11.10;101723.00;;;;4996876;27;85587;-63
2023/04/04 10:18:27;;;;;;;0.50;0.50;;;10.70;49.10;11.50;101718.00;;;;4971266;28;93734;-64
2023/04/04 10:20:57;;;;;;;2.20;0.63;;;11.10;49.30;11.90;101709.00;;;;4959785;28;90968;-63
2023/04/04 10:23:27;;;;;;;0.43;0.40;;;11.50;47.40;12.10;101706.00;;;;4969497;28;84028;-62
2023/04/04 10:25:58;;;;;;;2.93;0.53;;;11.70;46.50;12.30;101709.00;;;;4968265;28;83984;-63
2023/04/04 10:28:25;;;;;;;1.33;1.03;;;11.80;46.50;12.70;101712.00;;;;4964065;28;100043;-65
2023/04/04 10:31:05;;;;;;;0.77;0.50;;;12.20;48.20;13.40;101713.00;;;;4971384;28;82821;-64
2023/04/04 10:34:24;;;;;;;0.83;0.50;;;12.80;48.40;14.10;101717.00;;;;4961988;28;83460;-63
2023/04/04 10:37:06;;;;;;;0.60;0.37;;;13.70;48.00;14.50;101719.00;;;;4958478;28;82667;-64
2023/04/04 10:39:51;;;;;;;2.97;1.03;;;13.90;47.80;14.70;101722.00;;;;4969716;28;82954;-62
2023/04/04 10:42:18;;;;;;;0.80;0.43;;;14.30;45.60;14.40;101719.00;;;;4966958;28;102375;-64
2023/04/04 10:44:45;;;;;;;2.27;0.50;;;14.10;44.70;14.30;101719.00;;;;4967608;28;93150;-64
2023/04/04 10:47:20;;;;;;;1.40;0.43;;;14.00;43.50;14.40;101717.00;;;;4948429;28;82726;-64
2023/04/04 10:49:48;;;;;;;1.17;0.60;;;14.00;44.60;14.70;101717.00;;;;4955998;28;83706;-63
2023/04/04 10:52:18;;;;;;;0.20;0.20;;;14.30;44.60;14.90;101700.00;;;;4985206;28;83014;-64
2023/04/04 10:54:44;;;;;;;1.07;0.37;;;14.50;43.30;15.00;101701.00;;;;4956930;28;82930;-63